Time;durP1;ratioP1;P1;durP2;ratioP2;P2;SDS_P1;SDS_P2;PMS_P1;PMS_P2;Temp;Humidity;BMP_temperature;BMP_pressure;BME280_temperature;BME280_humidity;BME280_pressure;Samples;Min_cycle;Max_cycle;Signal;HPM_P1;HPM_P2
2023/10/26 00:01:10;;;;;;;4.27;2.90;;;11.70;99.90;;;;;;5013255;28;20697;-70
2023/10/26 00:03:35;;;;;;;3.00;2.70;;;11.70;99.90;;;;;;5013543;28;20168;-70
2023/10/26 00:06:01;;;;;;;5.40;3.70;;;11.60;99.90;;;;;;5013599;28;20179;-70
2023/10/26 00:08:26;;;;;;;5.93;4.13;;;11.60;99.90;;;;;;5013464;28;20525;-70
2023/10/26 00:10:52;;;;;;;5.40;4.90;;;11.60;99.90;;;;;;5013422;28;20223;-70
2023/10/26 00:13:18;;;;;;;5.97;4.87;;;11.60;99.90;;;;;;5013446;28;20246;-70
2023/10/26 00:15:43;;;;;;;5.03;4.33;;;11.60;99.90;;;;;;5013457;28;20399;-70
2023/10/26 00:18:09;;;;;;;8.50;6.43;;;11.60;99.90;;;;;;5013242;28;20184;-69
2023/10/26 00:20:34;;;;;;;7.60;5.43;;;11.50;99.90;;;;;;5013172;28;20164;-70
2023/10/26 00:23:01;;;;;;;5.93;4.83;;;11.50;99.90;;;;;;5012082;28;20671;-69
2023/10/26 00:25:27;;;;;;;7.33;5.60;;;11.50;99.90;;;;;;5013183;28;20247;-70
2023/10/26 00:27:53;;;;;;;8.90;5.90;;;11.50;99.90;;;;;;5013072;28;20854;-70
2023/10/26 00:30:18;;;;;;;8.80;6.57;;;11.50;99.90;;;;;;5012446;28;20295;-70
2023/10/26 00:32:44;;;;;;;10.10;7.27;;;11.60;99.90;;;;;;5013035;28;20191;-70
2023/10/26 00:35:10;;;;;;;10.80;6.53;;;11.50;99.90;;;;;;5012774;28;20160;-70
2023/10/26 00:37:35;;;;;;;10.30;6.40;;;11.60;99.90;;;;;;5012067;28;20453;-70
2023/10/26 00:40:01;;;;;;;8.93;5.63;;;11.60;99.90;;;;;;5005187;28;20173;-70
2023/10/26 00:42:26;;;;;;;7.97;5.30;;;11.50;99.90;;;;;;5011851;28;20255;-70
2023/10/26 00:44:53;;;;;;;8.17;6.00;;;11.50;99.90;;;;;;5012098;28;20176;-70
2023/10/26 00:47:19;;;;;;;10.17;6.20;;;11.60;99.90;;;;;;5011890;28;20188;-70
2023/10/26 00:49:45;;;;;;;10.93;7.33;;;11.50;99.90;;;;;;5027263;28;20430;-70
2023/10/26 00:52:12;;;;;;;8.97;7.23;;;11.50;99.90;;;;;;5011835;28;20267;-70
2023/10/26 00:54:41;;;;;;;10.30;7.80;;;11.50;99.90;;;;;;5011953;28;20176;-70
2023/10/26 00:57:07;;;;;;;14.50;9.80;;;11.50;99.90;;;;;;5011823;28;21190;-70
2023/10/26 00:59:34;;;;;;;11.67;8.00;;;11.50;99.90;;;;;;5011905;28;20403;-70
2023/10/26 01:02:01;;;;;;;15.07;9.57;;;11.50;99.90;;;;;;5006167;28;20598;-70
2023/10/26 01:04:27;;;;;;;14.53;9.33;;;11.50;99.90;;;;;;5009205;28;20443;-70
2023/10/26 01:06:52;;;;;;;14.40;9.20;;;11.50;99.90;;;;;;5011550;28;21059;-69
2023/10/26 01:09:19;;;;;;;21.00;10.80;;;11.50;99.90;;;;;;5011607;28;20395;-69
2023/10/26 01:11:45;;;;;;;12.57;8.63;;;11.50;99.90;;;;;;5011490;28;20207;-70
2023/10/26 01:14:11;;;;;;;14.50;10.10;;;11.50;99.90;;;;;;5011731;28;20447;-70
2023/10/26 01:16:37;;;;;;;14.67;9.47;;;11.50;99.90;;;;;;5026593;28;20238;-70
2023/10/26 01:19:03;;;;;;;16.20;10.30;;;11.50;99.90;;;;;;5026834;28;20382;-69
2023/10/26 01:21:30;;;;;;;14.30;11.20;;;11.50;99.90;;;;;;5011425;28;20457;-70
2023/10/26 01:23:56;;;;;;;18.33;11.20;;;11.40;99.90;;;;;;5011465;28;20501;-70
2023/10/26 01:26:22;;;;;;;15.17;10.87;;;11.40;99.90;;;;;;5010211;28;20438;-70
2023/10/26 01:28:47;;;;;;;16.63;11.20;;;11.40;99.90;;;;;;5010138;28;20302;-70
2023/10/26 01:31:17;;;;;;;17.50;10.30;;;11.40;99.90;;;;;;5026444;28;20827;-70
2023/10/26 01:33:43;;;;;;;14.40;10.43;;;11.40;99.90;;;;;;5011149;28;20283;-70
2023/10/26 01:36:08;;;;;;;14.70;9.70;;;11.40;99.90;;;;;;4987741;28;1127952;-70
2023/10/26 01:38:34;;;;;;;14.97;10.57;;;11.40;99.90;;;;;;5009605;28;20195;-69
2023/10/26 01:41:00;;;;;;;13.63;10.10;;;11.50;99.90;;;;;;5007391;28;20728;-70
2023/10/26 01:43:26;;;;;;;17.77;11.43;;;11.50;99.90;;;;;;5018305;28;20465;-70
2023/10/26 01:45:51;;;;;;;19.43;11.80;;;11.50;99.90;;;;;;5012139;28;20200;-70
2023/10/26 01:48:17;;;;;;;16.07;11.47;;;11.50;99.90;;;;;;5027073;28;20681;-70
2023/10/26 01:50:42;;;;;;;17.33;11.10;;;11.50;99.90;;;;;;5026710;28;20230;-69
2023/10/26 01:53:08;;;;;;;16.63;9.97;;;11.40;99.90;;;;;;5011877;28;20192;-70
2023/10/26 01:55:33;;;;;;;13.50;10.40;;;11.40;99.90;;;;;;5012047;28;20259;-70
2023/10/26 01:57:59;;;;;;;20.13;11.40;;;11.40;99.90;;;;;;5011878;28;20231;-70
2023/10/26 02:00:25;;;;;;;20.43;14.47;;;11.30;99.90;;;;;;5011722;28;20168;-70
2023/10/26 02:02:51;;;;;;;19.10;12.40;;;11.40;99.90;;;;;;5011833;28;20588;-70
2023/10/26 02:05:16;;;;;;;21.53;12.10;;;11.30;99.90;;;;;;5011782;28;20395;-70
2023/10/26 02:07:42;;;;;;;15.93;10.47;;;11.30;99.90;;;;;;5011231;28;20196;-70
2023/10/26 02:10:12;;;;;;;17.57;11.57;;;11.40;99.90;;;;;;5011861;28;20172;-70
2023/10/26 02:12:38;;;;;;;18.53;12.17;;;11.40;99.90;;;;;;5011594;28;20457;-69
2023/10/26 02:15:04;;;;;;;17.03;12.23;;;11.40;99.90;;;;;;5011793;28;20402;-70
2023/10/26 02:17:29;;;;;;;17.70;11.90;;;11.40;99.90;;;;;;5011650;28;20566;-70
2023/10/26 02:19:55;;;;;;;21.37;12.23;;;11.40;99.90;;;;;;5011392;28;20404;-70
2023/10/26 02:22:20;;;;;;;19.97;11.10;;;11.30;99.90;;;;;;5026780;28;20180;-70
2023/10/26 02:24:45;;;;;;;21.00;13.27;;;11.30;99.90;;;;;;5026906;28;20172;-70
2023/10/26 02:27:11;;;;;;;21.03;13.07;;;11.30;99.90;;;;;;5011622;28;20275;-70
2023/10/26 02:29:37;;;;;;;21.17;12.90;;;11.40;99.90;;;;;;5011734;28;20179;-72
2023/10/26 02:32:02;;;;;;;21.70;10.90;;;11.40;99.90;;;;;;5011485;28;20180;-70
2023/10/26 02:34:28;;;;;;;19.87;12.70;;;11.40;99.90;;;;;;5011597;28;20172;-70
2023/10/26 02:36:54;;;;;;;22.23;13.27;;;11.40;99.90;;;;;;5011354;28;20798;-69
2023/10/26 02:39:19;;;;;;;18.53;11.57;;;11.50;99.90;;;;;;5007953;28;20176;-69
2023/10/26 02:41:45;;;;;;;19.93;12.90;;;11.40;99.90;;;;;;5008673;28;20203;-70
2023/10/26 02:44:10;;;;;;;24.93;16.50;;;11.40;99.90;;;;;;5011503;28;20175;-70
2023/10/26 02:46:36;;;;;;;23.73;13.80;;;11.50;99.90;;;;;;5011359;28;20164;-69
2023/10/26 02:49:01;;;;;;;20.23;12.60;;;11.50;99.90;;;;;;5011384;28;20247;-69
2023/10/26 02:51:27;;;;;;;21.57;13.57;;;11.50;99.90;;;;;;5011489;28;20247;-70
2023/10/26 02:53:52;;;;;;;24.60;13.90;;;11.50;99.90;;;;;;5013176;28;20687;-69
2023/10/26 02:56:18;;;;;;;19.10;13.43;;;11.60;99.90;;;;;;5014955;28;20164;-70
2023/10/26 02:58:44;;;;;;;18.80;14.47;;;11.60;99.90;;;;;;5014992;28;20188;-69
2023/10/26 03:01:09;;;;;;;24.47;15.73;;;11.60;99.90;;;;;;5014749;28;20169;-70
2023/10/26 03:03:35;;;;;;;24.17;17.07;;;11.60;99.90;;;;;;5015067;28;20172;-69
2023/10/26 03:06:01;;;;;;;20.77;14.80;;;11.70;99.90;;;;;;5014767;28;20196;-70
2023/10/26 03:08:26;;;;;;;20.03;13.57;;;11.70;99.90;;;;;;5014674;28;20199;-70
2023/10/26 03:10:52;;;;;;;20.23;12.07;;;11.70;99.90;;;;;;5014717;28;20199;-70
2023/10/26 03:13:17;;;;;;;20.53;12.60;;;11.70;99.90;;;;;;5014617;28;20211;-69
2023/10/26 03:15:43;;;;;;;16.37;10.87;;;11.70;99.90;;;;;;5014657;28;20670;-70
2023/10/26 03:18:08;;;;;;;20.67;12.87;;;11.70;99.90;;;;;;5014393;28;20558;-69
2023/10/26 03:20:34;;;;;;;19.80;11.23;;;11.80;99.90;;;;;;5014014;28;20164;-70
2023/10/26 03:22:59;;;;;;;19.00;12.50;;;11.80;99.90;;;;;;5014502;28;20168;-70
2023/10/26 03:25:25;;;;;;;21.10;12.00;;;11.80;99.90;;;;;;5014334;28;20164;-70
2023/10/26 03:27:50;;;;;;;18.87;12.90;;;11.80;99.90;;;;;;5014091;28;20192;-70
2023/10/26 03:30:17;;;;;;;22.33;13.20;;;11.80;99.90;;;;;;5014230;28;20551;-70
2023/10/26 03:32:44;;;;;;;27.17;15.07;;;11.80;99.90;;;;;;5014184;28;20184;-70
2023/10/26 03:35:10;;;;;;;19.53;12.60;;;11.80;99.90;;;;;;5014124;28;20414;-70
2023/10/26 03:37:38;;;;;;;20.27;13.00;;;11.80;99.90;;;;;;5014130;28;20427;-71
2023/10/26 03:40:05;;;;;;;18.57;12.00;;;11.80;99.90;;;;;;5008064;28;20949;-70
2023/10/26 03:42:31;;;;;;;18.37;11.43;;;11.80;99.90;;;;;;5013749;28;20918;-70
2023/10/26 03:44:56;;;;;;;18.50;12.83;;;11.80;99.90;;;;;;5013926;28;20411;-72
2023/10/26 03:47:22;;;;;;;20.60;12.87;;;11.90;99.90;;;;;;5013727;28;20188;-70
2023/10/26 03:49:51;;;;;;;18.80;12.27;;;11.90;99.90;;;;;;5014055;28;20210;-70
2023/10/26 03:52:18;;;;;;;22.37;12.20;;;11.90;99.90;;;;;;5029087;28;20571;-70
2023/10/26 03:54:43;;;;;;;22.00;13.20;;;11.90;99.90;;;;;;5013555;28;20399;-69
2023/10/26 03:57:09;;;;;;;21.83;13.00;;;11.90;99.90;;;;;;5013637;28;20423;-70
2023/10/26 03:59:34;;;;;;;24.80;14.07;;;12.00;99.90;;;;;;5013836;28;20168;-70
2023/10/26 04:02:00;;;;;;;22.50;13.87;;;12.00;99.90;;;;;;5013485;28;20173;-70
2023/10/26 04:04:25;;;;;;;18.80;12.77;;;12.00;99.90;;;;;;5012860;28;20160;-69
2023/10/26 04:06:51;;;;;;;20.10;11.30;;;12.00;99.90;;;;;;5013586;28;20189;-69
2023/10/26 04:09:16;;;;;;;21.67;13.30;;;12.00;99.90;;;;;;5013741;28;20296;-70
2023/10/26 04:11:44;;;;;;;21.20;13.07;;;12.00;99.90;;;;;;5028385;28;20168;-70
2023/10/26 04:14:10;;;;;;;19.67;11.80;;;12.00;99.90;;;;;;5013457;28;20199;-70
2023/10/26 04:16:35;;;;;;;14.23;9.93;;;12.00;99.90;;;;;;5013233;28;20403;-71
2023/10/26 04:19:01;;;;;;;18.63;11.80;;;12.00;99.90;;;;;;5028442;28;20208;-70
2023/10/26 04:21:26;;;;;;;17.80;12.30;;;12.00;99.90;;;;;;5013256;28;20171;-70
2023/10/26 04:23:52;;;;;;;17.13;10.47;;;12.00;99.90;;;;;;5010607;28;20179;-70
2023/10/26 04:26:18;;;;;;;18.37;12.20;;;12.00;99.90;;;;;;5012631;28;20718;-70
2023/10/26 04:28:43;;;;;;;17.60;13.27;;;12.00;99.90;;;;;;5013023;28;20237;-70
2023/10/26 04:31:11;;;;;;;16.87;10.50;;;11.90;99.90;;;;;;5012987;28;20418;-70
2023/10/26 04:33:37;;;;;;;18.87;10.33;;;11.90;99.90;;;;;;5012792;28;20228;-70
2023/10/26 04:36:04;;;;;;;18.13;11.80;;;11.90;99.90;;;;;;5013115;28;20842;-70
2023/10/26 04:38:30;;;;;;;15.63;11.23;;;11.90;99.90;;;;;;5012662;28;20734;-70
2023/10/26 04:40:57;;;;;;;18.37;10.83;;;11.80;99.90;;;;;;4996252;28;20419;-70
2023/10/26 04:43:23;;;;;;;16.90;11.93;;;11.80;99.90;;;;;;5012842;28;20176;-70
2023/10/26 04:45:48;;;;;;;13.87;10.63;;;11.80;99.90;;;;;;5012803;28;20407;-70
2023/10/26 04:48:14;;;;;;;15.60;10.97;;;11.70;99.90;;;;;;5025085;28;20200;-70
2023/10/26 04:50:39;;;;;;;14.33;11.20;;;11.70;99.90;;;;;;5010532;28;20643;-70
2023/10/26 04:53:05;;;;;;;13.57;10.10;;;11.70;99.90;;;;;;5012742;28;20196;-70
2023/10/26 04:55:33;;;;;;;16.77;10.07;;;11.70;99.90;;;;;;5008064;28;20271;-70
2023/10/26 04:57:59;;;;;;;19.43;11.37;;;11.70;99.90;;;;;;5023791;28;20220;-70
2023/10/26 05:00:26;;;;;;;18.33;11.40;;;11.70;99.90;;;;;;5012231;28;20466;-70
2023/10/26 05:02:52;;;;;;;14.30;10.87;;;11.80;99.90;;;;;;5008013;28;20500;-70
2023/10/26 05:05:18;;;;;;;21.40;14.87;;;11.80;99.90;;;;;;5010734;28;20514;-70
2023/10/26 05:07:44;;;;;;;21.13;13.30;;;11.80;99.90;;;;;;5012105;28;20662;-71
2023/10/26 05:10:10;;;;;;;17.13;11.43;;;11.80;99.90;;;;;;5012480;28;20782;-70
2023/10/26 05:12:35;;;;;;;19.97;10.37;;;11.80;99.90;;;;;;5012119;28;20446;-70
2023/10/26 05:15:01;;;;;;;14.90;11.27;;;11.80;99.90;;;;;;5012464;28;20231;-70
2023/10/26 05:17:27;;;;;;;18.43;10.70;;;11.80;99.90;;;;;;5012166;28;20196;-70
2023/10/26 05:19:52;;;;;;;15.53;10.67;;;11.80;99.90;;;;;;5012398;28;20251;-70
2023/10/26 05:22:19;;;;;;;13.33;10.03;;;11.80;99.90;;;;;;5012164;28;20194;-70
2023/10/26 05:24:44;;;;;;;17.30;11.17;;;11.80;99.90;;;;;;5012189;28;20195;-71
2023/10/26 05:27:10;;;;;;;18.43;10.40;;;11.80;99.90;;;;;;5012161;28;20474;-71
2023/10/26 05:29:36;;;;;;;17.60;11.60;;;11.70;99.90;;;;;;5012657;28;20164;-70
2023/10/26 05:32:02;;;;;;;17.33;12.20;;;11.70;99.90;;;;;;5011981;28;20449;-70
2023/10/26 05:34:28;;;;;;;19.00;12.20;;;11.70;99.90;;;;;;5012244;28;20175;-71
2023/10/26 05:36:53;;;;;;;20.60;12.50;;;11.70;99.90;;;;;;5011943;28;20442;-70
2023/10/26 05:39:19;;;;;;;16.13;10.70;;;11.70;99.90;;;;;;5012091;28;20172;-71
2023/10/26 05:41:45;;;;;;;24.23;12.80;;;11.70;99.90;;;;;;5012019;28;20551;-70
2023/10/26 05:44:10;;;;;;;18.03;11.10;;;11.70;99.90;;;;;;5012052;28;20176;-71
2023/10/26 05:46:36;;;;;;;18.50;12.77;;;11.70;99.90;;;;;;5011960;28;20203;-70
2023/10/26 05:49:02;;;;;;;12.80;10.00;;;11.70;99.90;;;;;;5012203;28;20172;-70
2023/10/26 05:51:29;;;;;;;16.90;11.07;;;11.70;99.90;;;;;;5011826;28;20173;-71
2023/10/26 05:53:54;;;;;;;18.23;12.00;;;11.70;99.90;;;;;;5027229;28;20455;-70
2023/10/26 05:56:20;;;;;;;19.77;11.40;;;11.70;99.90;;;;;;5011929;28;20411;-71
2023/10/26 05:58:47;;;;;;;19.27;11.27;;;11.80;99.90;;;;;;5011840;28;20542;-70
2023/10/26 06:01:13;;;;;;;16.53;10.97;;;11.80;99.90;;;;;;5011793;28;20172;-71
2023/10/26 06:03:39;;;;;;;14.73;10.00;;;11.80;99.90;;;;;;5011922;28;20809;-70
2023/10/26 06:06:05;;;;;;;18.63;10.83;;;11.80;99.90;;;;;;5011909;28;20180;-70
2023/10/26 06:08:30;;;;;;;19.83;10.03;;;11.80;99.90;;;;;;5012104;28;20485;-69
2023/10/26 06:10:57;;;;;;;16.00;10.90;;;11.80;99.90;;;;;;5011726;28;20407;-71
2023/10/26 06:13:24;;;;;;;15.40;9.00;;;11.80;99.90;;;;;;5010360;28;20564;-71
2023/10/26 06:15:49;;;;;;;18.20;11.37;;;11.70;99.90;;;;;;5011728;28;20427;-70
2023/10/26 06:18:15;;;;;;;15.70;10.90;;;11.60;99.90;;;;;;5011663;28;20458;-70
2023/10/26 06:20:41;;;;;;;15.37;10.17;;;11.60;99.90;;;;;;5011986;28;20175;-70
2023/10/26 06:23:07;;;;;;;16.40;11.10;;;11.70;99.90;;;;;;5011852;28;20256;-71
2023/10/26 06:25:36;;;;;;;14.93;10.40;;;11.50;99.90;;;;;;5011689;28;20174;-71
2023/10/26 06:28:03;;;;;;;21.40;11.20;;;11.50;99.90;;;;;;5011972;28;20435;-70
2023/10/26 06:30:28;;;;;;;17.90;10.40;;;11.40;99.90;;;;;;5015216;28;20458;-71
2023/10/26 06:32:54;;;;;;;14.27;9.83;;;11.30;99.90;;;;;;5015274;28;20455;-71
2023/10/26 06:35:20;;;;;;;15.27;10.37;;;11.20;99.90;;;;;;5015331;28;20585;-70
2023/10/26 06:37:45;;;;;;;17.57;11.60;;;11.10;99.90;;;;;;5015130;28;20395;-71
2023/10/26 06:40:11;;;;;;;15.70;10.20;;;11.00;99.90;;;;;;5015258;28;20695;-71
2023/10/26 06:42:37;;;;;;;11.87;9.87;;;10.90;99.90;;;;;;5014983;28;20172;-71
2023/10/26 06:45:03;;;;;;;14.90;10.17;;;10.90;99.90;;;;;;5015129;28;20169;-70
2023/10/26 06:47:29;;;;;;;16.83;9.73;;;10.80;99.90;;;;;;5014930;28;20184;-70
2023/10/26 06:49:55;;;;;;;18.37;10.60;;;10.80;99.90;;;;;;5015152;28;20437;-71
2023/10/26 06:52:20;;;;;;;14.93;10.00;;;10.70;99.90;;;;;;5014837;28;20196;-71
2023/10/26 06:54:49;;;;;;;15.87;10.67;;;10.70;99.90;;;;;;5013815;28;20442;-70
2023/10/26 06:57:15;;;;;;;16.10;8.60;;;10.70;99.90;;;;;;5015125;28;20184;-71
2023/10/26 06:59:41;;;;;;;14.50;10.40;;;10.60;99.90;;;;;;5015005;28;20427;-70
2023/10/26 07:02:07;;;;;;;15.40;9.67;;;10.70;99.90;;;;;;5014580;28;20454;-70
2023/10/26 07:04:34;;;;;;;12.90;8.60;;;10.70;99.90;;;;;;5014841;28;20403;-71
2023/10/26 07:07:00;;;;;;;14.67;10.13;;;10.70;99.90;;;;;;5014737;28;20419;-70
2023/10/26 07:09:25;;;;;;;22.43;10.43;;;10.80;99.90;;;;;;5021197;28;20863;-71
2023/10/26 07:11:51;;;;;;;16.33;9.40;;;10.80;99.90;;;;;;5008828;28;20172;-70
2023/10/26 07:14:16;;;;;;;17.10;9.60;;;10.90;99.90;;;;;;5014555;28;20203;-71
2023/10/26 07:16:42;;;;;;;15.23;9.77;;;11.00;99.90;;;;;;5014524;28;20702;-71
2023/10/26 07:19:07;;;;;;;16.17;9.20;;;11.10;99.90;;;;;;5014515;28;20211;-70
2023/10/26 07:21:34;;;;;;;15.67;10.60;;;11.20;99.90;;;;;;5014457;28;20205;-70
2023/10/26 07:24:00;;;;;;;15.60;11.10;;;11.20;99.90;;;;;;5014526;28;20164;-71
2023/10/26 07:26:25;;;;;;;16.90;10.43;;;11.30;99.90;;;;;;5014308;28;20801;-71
2023/10/26 07:28:52;;;;;;;14.40;10.00;;;11.50;99.90;;;;;;5014293;28;20173;-71
2023/10/26 07:31:21;;;;;;;16.13;10.37;;;11.60;99.90;;;;;;5014232;28;20628;-71
2023/10/26 07:33:48;;;;;;;17.60;12.00;;;11.80;99.90;;;;;;4996622;28;20981;-71
2023/10/26 07:36:14;;;;;;;17.00;12.13;;;12.10;99.90;;;;;;5014145;28;20423;-71
2023/10/26 07:38:40;;;;;;;17.10;10.60;;;12.20;99.90;;;;;;5013874;28;20930;-71
2023/10/26 07:41:07;;;;;;;14.60;10.70;;;12.40;99.90;;;;;;5012659;28;20586;-71
2023/10/26 07:43:33;;;;;;;15.27;9.40;;;12.60;99.90;;;;;;5010722;28;20780;-71
2023/10/26 07:45:58;;;;;;;15.37;10.13;;;12.80;99.90;;;;;;5011965;28;20458;-71
2023/10/26 07:48:24;;;;;;;12.93;10.30;;;12.90;99.90;;;;;;5013326;28;20962;-71
2023/10/26 07:50:51;;;;;;;13.93;10.20;;;13.00;99.90;;;;;;5013715;28;20298;-71
2023/10/26 07:53:16;;;;;;;15.93;11.17;;;13.00;99.90;;;;;;5013830;28;20295;-71
2023/10/26 07:55:43;;;;;;;15.63;10.93;;;13.10;99.90;;;;;;5013941;28;20500;-71
2023/10/26 07:58:09;;;;;;;14.57;7.40;;;13.30;99.90;;;;;;5012488;28;20567;-71
2023/10/26 08:00:37;;;;;;;11.93;8.30;;;13.40;99.90;;;;;;5013618;28;20403;-71
2023/10/26 08:03:02;;;;;;;13.10;8.27;;;13.50;99.90;;;;;;5013791;28;20640;-71
2023/10/26 08:05:29;;;;;;;9.20;7.27;;;13.70;99.90;;;;;;5013772;28;20410;-71
2023/10/26 08:07:54;;;;;;;12.60;8.23;;;13.90;99.90;;;;;;5013437;28;20192;-71
2023/10/26 08:10:20;;;;;;;16.03;10.43;;;14.10;99.90;;;;;;5013349;28;20411;-71
2023/10/26 08:12:46;;;;;;;22.23;12.90;;;14.20;99.90;;;;;;5028734;28;20204;-73
2023/10/26 08:15:11;;;;;;;18.43;12.07;;;14.10;99.90;;;;;;5013633;28;20168;-72
2023/10/26 08:17:37;;;;;;;22.33;15.57;;;14.20;99.90;;;;;;5013413;28;20686;-71
2023/10/26 08:20:06;;;;;;;21.47;14.27;;;14.20;99.90;;;;;;5013484;28;20547;-72
2023/10/26 08:22:32;;;;;;;18.97;13.27;;;14.30;99.90;;;;;;5011966;28;20647;-71
2023/10/26 08:24:59;;;;;;;19.30;12.53;;;14.50;99.90;;;;;;5013310;28;20465;-71
2023/10/26 08:27:25;;;;;;;19.87;14.27;;;14.70;99.90;;;;;;5013185;28;20427;-71
2023/10/26 08:29:51;;;;;;;21.33;12.37;;;14.90;99.90;;;;;;5013272;28;20414;-71
2023/10/26 08:32:16;;;;;;;17.00;13.17;;;15.30;99.90;;;;;;5017667;28;20172;-71
2023/10/26 08:34:44;;;;;;;17.33;12.23;;;15.60;99.90;;;;;;4995387;28;20422;-71
2023/10/26 08:37:10;;;;;;;18.90;12.17;;;15.80;99.90;;;;;;4995050;28;20900;-71
2023/10/26 08:39:36;;;;;;;21.20;13.30;;;16.10;99.90;;;;;;5008456;28;20492;-71
2023/10/26 08:42:02;;;;;;;17.40;12.83;;;16.10;99.90;;;;;;5012768;28;20481;-71
2023/10/26 08:44:29;;;;;;;13.50;10.83;;;16.10;99.90;;;;;;5011572;28;20423;-71
2023/10/26 08:47:01;;;;;;;17.70;13.00;;;16.10;99.90;;;;;;5006955;28;20801;-71
2023/10/26 08:49:28;;;;;;;19.23;14.23;;;16.20;99.90;;;;;;5012899;28;20777;-71
2023/10/26 08:51:54;;;;;;;19.20;12.70;;;16.30;99.90;;;;;;5012159;28;20484;-71
2023/10/26 08:54:20;;;;;;;16.90;12.33;;;16.40;99.90;;;;;;5012860;28;20881;-71
2023/10/26 08:56:45;;;;;;;16.03;11.70;;;16.60;99.90;;;;;;5012771;28;20430;-71
2023/10/26 08:59:11;;;;;;;14.23;10.10;;;16.70;99.90;;;;;;5012654;28;20168;-71
2023/10/26 09:01:36;;;;;;;17.20;11.50;;;16.80;99.90;;;;;;5012483;28;20168;-71
2023/10/26 09:04:09;;;;;;;12.73;10.60;;;17.10;99.90;;;;;;5012563;28;20182;-71
2023/10/26 09:06:43;;;;;;;13.40;9.97;;;17.40;99.90;;;;;;5012924;28;20164;-71
2023/10/26 09:09:09;;;;;;;12.07;9.60;;;17.60;99.90;;;;;;5026154;28;20438;-71
2023/10/26 09:11:34;;;;;;;15.17;10.23;;;17.70;99.90;;;;;;5012234;28;20806;-71
2023/10/26 09:14:15;;;;;;;11.77;8.67;;;17.70;99.90;;;;;;5012635;28;20246;-71
2023/10/26 09:16:43;;;;;;;10.53;9.10;;;17.40;99.90;;;;;;5012516;28;20214;-70
2023/10/26 09:19:09;;;;;;;10.40;8.23;;;17.40;99.90;;;;;;5012451;28;20418;-70
2023/10/26 09:21:57;;;;;;;8.80;7.93;;;17.10;99.90;;;;;;5012259;28;20777;-70
2023/10/26 09:24:25;;;;;;;11.03;9.93;;;16.60;99.90;;;;;;5012435;28;20457;-71
2023/10/26 09:26:56;;;;;;;10.70;8.87;;;16.30;99.90;;;;;;5012294;28;20922;-71
2023/10/26 09:29:39;;;;;;;14.10;10.00;;;16.10;99.90;;;;;;5012405;28;20482;-71
2023/10/26 09:32:05;;;;;;;15.53;11.80;;;15.80;99.90;;;;;;5012034;28;20434;-71
2023/10/26 09:34:37;;;;;;;14.77;11.20;;;15.60;99.90;;;;;;5012328;28;20454;-71
2023/10/26 09:37:05;;;;;;;15.33;11.27;;;15.30;99.90;;;;;;5011949;28;20458;-70
2023/10/26 09:39:35;;;;;;;21.20;12.20;;;15.20;99.90;;;;;;5010884;28;20426;-70
2023/10/26 09:42:01;;;;;;;17.87;13.30;;;15.20;99.90;;;;;;5007282;28;20821;-71
2023/10/26 09:44:28;;;;;;;17.93;12.77;;;15.30;99.90;;;;;;5005962;28;20946;-70
2023/10/26 09:46:54;;;;;;;14.10;11.00;;;15.50;99.90;;;;;;5011846;28;20431;-72
2023/10/26 09:49:22;;;;;;;16.57;13.07;;;15.80;99.90;;;;;;5011993;28;20423;-71
2023/10/26 09:51:48;;;;;;;12.80;10.23;;;16.40;99.90;;;;;;5011845;28;20419;-70
2023/10/26 09:54:15;;;;;;;18.27;11.23;;;17.20;99.90;;;;;;5011861;28;20821;-71
2023/10/26 09:56:47;;;;;;;11.07;9.80;;;18.10;99.90;;;;;;5012095;28;20556;-71
2023/10/26 09:59:13;;;;;;;13.03;8.97;;;18.70;99.90;;;;;;5026840;28;20433;-70
2023/10/26 10:01:42;;;;;;;10.40;8.57;;;19.60;99.90;;;;;;5011779;28;20408;-70
2023/10/26 10:04:10;;;;;;;7.87;6.40;;;21.40;99.90;;;;;;5014323;28;20425;-71
2023/10/26 10:06:49;;;;;;;9.93;7.53;;;23.80;99.90;;;;;;5015891;28;20418;-71
2023/10/26 10:09:19;;;;;;;7.93;7.10;;;25.60;99.90;;;;;;5015882;28;20422;-70
2023/10/26 10:11:45;;;;;;;9.00;7.37;;;26.40;83.30;;;;;;5030979;28;20995;-71
2023/10/26 10:14:50;;;;;;;8.60;7.70;;;27.10;73.80;;;;;;5015439;28;20537;-71
2023/10/26 10:17:18;;;;;;;8.03;7.33;;;27.20;60.10;;;;;;5015536;28;20482;-71
2023/10/26 10:19:46;;;;;;;7.13;6.60;;;27.00;52.20;;;;;;5016021;28;20778;-71
2023/10/26 10:22:37;;;;;;;6.07;4.30;;;28.30;57.60;;;;;;5015450;28;20902;-71
2023/10/26 10:25:03;;;;;;;7.57;6.77;;;29.20;54.90;;;;;;5015619;28;20405;-71
2023/10/26 10:27:28;;;;;;;6.70;6.20;;;28.70;50.40;;;;;;5015356;28;20509;-71
2023/10/26 10:29:56;;;;;;;5.40;4.90;;;27.60;45.60;;;;;;5015467;28;20974;-71
2023/10/26 10:32:46;;;;;;;8.40;7.47;;;27.60;50.00;;;;;;5015237;28;20250;-71
2023/10/26 10:35:43;;;;;;;10.47;7.53;;;27.90;48.30;;;;;;5008591;28;20434;-71
2023/10/26 10:38:15;;;;;;;6.10;5.50;;;28.30;48.80;;;;;;5006463;28;20450;-71
2023/10/26 10:41:07;;;;;;;10.30;9.00;;;29.00;50.80;;;;;;5015056;28;20490;-71
2023/10/26 10:43:37;;;;;;;4.83;4.43;;;28.80;47.00;;;;;;5015117;28;20858;-71
2023/10/26 10:46:20;;;;;;;5.43;4.93;;;28.90;48.90;;;;;;5015205;28;20419;-71
2023/10/26 10:49:05;;;;;;;6.00;5.40;;;28.90;49.90;;;;;;5015000;28;20501;-71
2023/10/26 10:51:35;;;;;;;5.50;4.57;;;28.50;48.80;;;;;;5014866;28;20419;-71
2023/10/26 10:54:06;;;;;;;5.07;4.57;;;27.60;48.50;;;;;;5014840;28;20468;-71
2023/10/26 10:56:36;;;;;;;4.47;4.10;;;26.80;50.40;;;;;;5014915;28;20771;-71
2023/10/26 10:59:21;;;;;;;4.63;4.23;;;26.00;51.80;;;;;;5014946;28;20481;-72
2023/10/26 11:01:48;;;;;;;4.40;4.00;;;25.20;52.40;;;;;;5009619;28;20419;-71
2023/10/26 11:04:14;;;;;;;3.83;3.53;;;24.70;55.00;;;;;;5008885;28;20990;-70
2023/10/26 11:06:47;;;;;;;6.07;4.97;;;24.20;60.30;;;;;;5010578;28;20425;-70
2023/10/26 11:09:37;;;;;;;5.70;5.20;;;23.40;55.50;;;;;;5014547;28;20186;-70
2023/10/26 11:12:10;;;;;;;5.83;5.23;;;22.80;58.10;;;;;;5014434;28;20411;-69
2023/10/26 11:14:36;;;;;;;8.10;7.30;;;22.20;71.20;;;;;;5007653;28;20985;-70
2023/10/26 11:17:02;;;;;;;8.20;7.00;;;21.40;73.00;;;;;;5014408;28;20431;-69
2023/10/26 11:19:27;;;;;;;5.50;5.00;;;20.60;84.10;;;;;;5014526;28;20619;-70
2023/10/26 11:21:56;;;;;;;8.63;4.90;;;20.20;99.90;;;;;;5014250;28;20200;-70
2023/10/26 11:24:31;;;;;;;5.80;5.20;;;20.00;99.90;;;;;;5014484;28;20250;-70
2023/10/26 11:27:14;;;;;;;5.97;5.37;;;19.60;99.90;;;;;;5014256;28;20844;-70
2023/10/26 11:29:40;;;;;;;5.70;5.03;;;19.70;99.90;;;;;;5014586;28;20453;-70
2023/10/26 11:32:24;;;;;;;4.87;4.43;;;20.50;99.90;;;;;;5014031;28;20839;-70
2023/10/26 11:35:06;;;;;;;5.63;5.13;;;21.20;99.90;;;;;;5008223;28;20422;-69
2023/10/26 11:37:36;;;;;;;7.17;4.00;;;21.60;99.90;;;;;;5008294;28;20446;-70
2023/10/26 11:40:03;;;;;;;6.57;5.50;;;22.00;99.90;;;;;;5013584;28;20619;-70
2023/10/26 11:42:59;;;;;;;5.43;4.93;;;22.60;94.30;;;;;;5013668;28;20391;-70
2023/10/26 11:45:26;;;;;;;4.27;3.87;;;23.20;78.60;;;;;;5014224;28;20395;-69
2023/10/26 11:47:56;;;;;;;3.80;3.50;;;23.60;65.60;;;;;;5013961;28;20782;-70
2023/10/26 11:50:32;;;;;;;4.10;3.80;;;23.50;63.20;;;;;;5013991;28;20391;-69
2023/10/26 11:53:03;;;;;;;4.70;4.27;;;23.00;57.00;;;;;;5013836;28;20489;-70
2023/10/26 11:55:31;;;;;;;8.43;7.43;;;22.30;57.50;;;;;;5014120;28;20392;-70
2023/10/26 11:58:01;;;;;;;3.97;3.67;;;21.80;63.00;;;;;;5013765;28;20506;-70
2023/10/26 12:00:27;;;;;;;3.83;3.60;;;21.20;67.30;;;;;;5013710;28;20400;-69
2023/10/26 12:02:54;;;;;;;4.07;3.77;;;20.40;70.80;;;;;;5013736;28;20493;-71
2023/10/26 12:05:21;;;;;;;5.53;4.30;;;19.90;94.80;;;;;;5013588;28;20905;-70
2023/10/26 12:07:48;;;;;;;4.90;4.40;;;19.40;99.40;;;;;;5013530;28;20423;-69
2023/10/26 12:10:15;;;;;;;3.70;3.40;;;18.60;99.90;;;;;;5013844;28;20828;-70
2023/10/26 12:12:41;;;;;;;5.70;5.10;;;18.40;99.90;;;;;;5013398;28;20450;-68
2023/10/26 12:15:08;;;;;;;4.60;4.20;;;18.00;99.90;;;;;;5013560;28;20406;-68
2023/10/26 12:17:34;;;;;;;3.80;3.50;;;17.50;99.90;;;;;;5013388;28;20419;-69
2023/10/26 12:19:59;;;;;;;4.07;3.70;;;17.40;99.90;;;;;;5013400;28;20407;-69
2023/10/26 12:22:25;;;;;;;3.90;3.50;;;17.20;99.90;;;;;;5013260;28;20655;-69
2023/10/26 12:24:51;;;;;;;4.37;3.97;;;17.20;99.90;;;;;;5013413;28;20524;-69
2023/10/26 12:27:16;;;;;;;4.03;3.63;;;17.00;99.90;;;;;;5012384;28;20180;-69
2023/10/26 12:29:46;;;;;;;4.80;3.73;;;16.90;99.90;;;;;;5011948;28;20172;-69
2023/10/26 12:32:12;;;;;;;3.40;3.10;;;16.80;99.90;;;;;;5012918;28;20175;-69
2023/10/26 12:34:37;;;;;;;3.90;3.43;;;16.90;99.90;;;;;;5013183;28;20408;-69